createdAt,value
2022-10-04T00:02:07.733Z,2.63
2022-10-04T00:07:01.087Z,2.80
2022-10-04T00:11:48.615Z,2.28
2022-10-04T00:16:39.396Z,2.42
2022-10-04T00:21:24.843Z,2.43
2022-10-04T00:26:17.789Z,2.30
2022-10-04T00:31:22.035Z,2.10
2022-10-04T00:36:37.146Z,2.30
2022-10-04T00:41:25.953Z,2.03
2022-10-04T00:46:16.449Z,2.00
2022-10-04T00:51:10.279Z,2.28
2022-10-04T00:55:59.975Z,2.50
2022-10-04T01:00:51.441Z,2.60
2022-10-04T01:05:39.775Z,2.47
2022-10-04T01:10:30.705Z,2.30
2022-10-04T01:15:21.150Z,2.42
2022-10-04T01:20:33.103Z,2.45
2022-10-04T01:25:46.241Z,2.55
2022-10-04T01:30:31.692Z,2.30
2022-10-04T01:35:19.354Z,2.53
2022-10-04T01:40:05.371Z,2.25
2022-10-04T01:44:59.602Z,2.10
2022-10-04T01:49:49.131Z,2.50
2022-10-04T01:54:37.647Z,2.30
2022-10-04T01:59:27.377Z,2.67
2022-10-04T02:04:22.029Z,2.42
2022-10-04T02:09:13.251Z,2.33
2022-10-04T02:13:58.883Z,2.35
2022-10-04T02:18:46.010Z,2.25
2022-10-04T02:23:35.278Z,2.40
2022-10-04T02:28:22.176Z,2.30
2022-10-04T02:33:07.778Z,2.30
2022-10-04T02:38:01.778Z,2.38
2022-10-04T02:42:53.186Z,3.10
2022-10-04T02:47:47.818Z,2.78
2022-10-04T02:52:39.534Z,2.30
2022-10-04T02:57:26.587Z,2.08
2022-10-04T03:02:30.028Z,2.50
2022-10-04T03:07:15.697Z,2.40
2022-10-04T03:12:00.964Z,2.17
2022-10-04T03:16:48.489Z,2.83
2022-10-04T03:21:37.368Z,2.53
2022-10-04T03:26:31.915Z,2.60
2022-10-04T03:31:20.221Z,2.35
2022-10-04T03:36:06.119Z,2.55
2022-10-04T03:40:59.267Z,2.22
2022-10-04T03:45:45.405Z,2.85
2022-10-04T03:50:33.772Z,2.78
2022-10-04T03:55:20.766Z,2.78
2022-10-04T04:00:09.816Z,2.97
2022-10-04T04:05:06.021Z,2.60
2022-10-04T04:09:55.848Z,2.65
2022-10-04T04:14:44.382Z,2.80
2022-10-04T04:19:32.391Z,2.80
2022-10-04T04:24:26.456Z,3.38
2022-10-04T04:29:19.625Z,3.90
2022-10-04T04:34:07.555Z,3.20
2022-10-04T04:39:07.601Z,4.20
2022-10-04T04:43:53.665Z,4.15
2022-10-04T04:48:39.990Z,4.28
2022-10-04T04:53:29.485Z,4.45
2022-10-04T04:58:22.273Z,5.85
2022-10-04T05:03:09.781Z,6.65
2022-10-04T05:08:13.905Z,5.80
2022-10-04T05:13:00.007Z,4.65
2022-10-04T05:17:48.303Z,4.55
2022-10-04T05:22:35.274Z,4.78
2022-10-04T05:27:27.297Z,6.32
2022-10-04T05:32:24.680Z,7.40
2022-10-04T05:37:28.213Z,5.20
2022-10-04T05:42:23.567Z,6.70
2022-10-04T05:47:11.092Z,5.13
2022-10-04T05:52:01.171Z,5.38
2022-10-04T05:57:22.112Z,5.35
2022-10-04T06:02:20.029Z,4.35
2022-10-04T06:07:18.502Z,4.38
2022-10-04T06:12:12.737Z,7.13
2022-10-04T06:17:22.251Z,13.48
2022-10-04T06:22:19.347Z,16.05
2022-10-04T06:27:14.156Z,11.30
2022-10-04T06:32:27.776Z,15.52
2022-10-04T06:37:23.651Z,10.07
2022-10-04T06:42:34.459Z,8.07
2022-10-04T06:47:35.181Z,8.13
2022-10-04T06:52:46.034Z,9.05
2022-10-04T06:57:52.619Z,10.18
2022-10-04T07:02:43.756Z,11.57
2022-10-04T07:07:42.165Z,13.88
2022-10-04T07:12:28.589Z,9.02
2022-10-04T07:17:21.876Z,7.95
2022-10-04T07:22:19.471Z,7.70
2022-10-04T07:27:06.901Z,7.47
2022-10-04T07:31:56.280Z,7.55
2022-10-04T07:36:52.091Z,6.93
2022-10-04T07:41:42.548Z,10.80
2022-10-04T07:46:46.330Z,12.43
2022-10-04T07:51:40.181Z,6.00
2022-10-04T07:56:37.037Z,6.20
2022-10-04T08:01:33.389Z,6.22
2022-10-04T08:06:23.520Z,4.60
2022-10-04T08:11:22.748Z,5.47
2022-10-04T08:16:24.225Z,3.85
2022-10-04T08:21:11.518Z,3.88
2022-10-04T08:26:05.921Z,3.70
2022-10-04T08:31:17.108Z,3.35
2022-10-04T08:36:17.765Z,4.03
2022-10-04T08:41:39.534Z,3.97
2022-10-04T08:46:59.765Z,4.15
2022-10-04T08:52:17.630Z,3.55
2022-10-04T08:57:23.086Z,3.63
2022-10-04T09:02:46.911Z,3.67
2022-10-04T09:08:26.305Z,3.83
2022-10-04T09:13:39.418Z,2.65
2022-10-04T09:18:52.806Z,2.83
2022-10-04T09:24:19.494Z,2.90
2022-10-04T09:29:40.396Z,2.35
2022-10-04T09:34:53.939Z,2.63
2022-10-04T09:40:11.130Z,2.40
2022-10-04T09:45:20.539Z,2.90
2022-10-04T09:50:37.454Z,2.17
2022-10-04T09:55:45.832Z,2.15
2022-10-04T10:00:38.177Z,2.20
2022-10-04T10:05:40.113Z,2.20
2022-10-04T10:10:51.875Z,2.30
2022-10-04T10:15:49.401Z,2.28
2022-10-04T10:21:02.826Z,2.10
2022-10-04T10:26:04.186Z,1.90
2022-10-04T10:31:08.839Z,2.53
2022-10-04T10:36:07.435Z,2.40
2022-10-04T10:41:13.435Z,2.10
2022-10-04T10:46:07.758Z,1.80
2022-10-04T10:51:12.971Z,1.85
2022-10-04T10:56:35.816Z,1.75
2022-10-04T11:01:56.442Z,1.77
2022-10-04T11:07:14.440Z,1.60
2022-10-04T11:12:32.080Z,1.58
2022-10-04T11:17:38.036Z,1.90
2022-10-04T11:22:53.030Z,2.03
2022-10-04T11:27:54.386Z,1.90
2022-10-04T11:33:17.616Z,1.60
2022-10-04T11:38:14.895Z,1.60
2022-10-04T11:43:21.796Z,1.70
2022-10-04T11:48:19.897Z,2.00
2022-10-04T11:53:31.183Z,1.77
2022-10-04T11:58:27.700Z,1.50
2022-10-04T12:03:42.410Z,1.48
2022-10-04T12:08:36.920Z,1.50
2022-10-04T12:13:39.334Z,1.55
2022-10-04T12:18:56.400Z,1.35
2022-10-04T12:24:04.407Z,1.15
2022-10-04T12:29:18.406Z,1.80
2022-10-04T12:34:16.393Z,3.85
2022-10-04T12:39:18.342Z,3.85
2022-10-04T12:44:21.340Z,4.13
2022-10-04T12:49:17.531Z,4.65
2022-10-04T12:54:09.869Z,5.55
2022-10-04T12:59:12.628Z,5.78
2022-10-04T13:04:23.944Z,6.00
2022-10-04T13:14:33.061Z,5.72
2022-10-04T13:19:27.548Z,4.40
2022-10-04T13:24:23.799Z,4.00
2022-10-04T13:29:18.859Z,3.03
2022-10-04T13:34:20.047Z,2.95
2022-10-04T13:39:27.464Z,3.80
2022-10-04T13:44:55.591Z,3.38
2022-10-04T13:49:58.165Z,3.92
2022-10-04T13:55:04.666Z,3.08
2022-10-04T13:59:56.770Z,2.88
2022-10-04T14:05:19.277Z,3.00
2022-10-04T14:10:24.310Z,3.20
2022-10-04T14:15:36.383Z,3.35
2022-10-04T14:20:50.488Z,2.60
2022-10-04T14:26:04.701Z,2.78
2022-10-04T14:31:03.714Z,3.13
2022-10-04T14:35:54.496Z,2.88
2022-10-04T14:40:48.758Z,2.85
2022-10-04T14:45:46.366Z,3.20
2022-10-04T14:50:46.595Z,2.85
2022-10-04T14:55:58.147Z,2.78
2022-10-04T15:01:08.154Z,2.88
2022-10-04T15:06:12.314Z,2.90
2022-10-04T15:11:02.396Z,2.70
2022-10-04T15:16:01.792Z,3.13
2022-10-04T15:20:57.378Z,3.28
2022-10-04T15:25:46.397Z,3.15
2022-10-04T15:30:48.491Z,2.88
2022-10-04T15:35:41.171Z,3.22
2022-10-04T15:40:38.021Z,3.00
2022-10-04T15:46:00.764Z,3.25
2022-10-04T15:51:04.647Z,3.05
2022-10-04T15:56:25.231Z,2.78
2022-10-04T16:01:41.144Z,3.35
2022-10-04T16:06:31.290Z,3.25
2022-10-04T16:11:31.527Z,3.47
2022-10-04T16:16:51.924Z,3.03
2022-10-04T16:21:45.314Z,2.95
2022-10-04T16:27:00.144Z,2.80
2022-10-04T16:31:58.437Z,3.00
2022-10-04T16:36:54.377Z,2.95
2022-10-04T16:41:45.452Z,3.20
2022-10-04T16:46:42.607Z,3.80
2022-10-04T16:51:53.619Z,3.83
2022-10-04T16:57:22.273Z,4.83
2022-10-04T17:02:31.963Z,5.40
2022-10-04T17:07:29.695Z,5.25
2022-10-04T17:12:21.601Z,5.60
2022-10-04T17:17:18.731Z,5.65
2022-10-04T17:22:18.152Z,5.55
2022-10-04T17:27:28.057Z,5.65
2022-10-04T17:32:25.892Z,6.47
2022-10-04T17:37:22.933Z,5.90
2022-10-04T17:42:36.309Z,6.25
2022-10-04T17:47:49.891Z,6.43
2022-10-04T17:52:57.711Z,7.38
2022-10-04T17:57:51.789Z,7.15
2022-10-04T18:02:54.998Z,7.50
2022-10-04T18:07:45.458Z,6.80
2022-10-04T18:12:35.542Z,7.10
2022-10-04T18:17:33.237Z,7.70
2022-10-04T18:22:20.336Z,7.53
2022-10-04T18:27:18.560Z,7.13
2022-10-04T18:32:05.251Z,7.22
2022-10-04T18:37:07.811Z,9.40
2022-10-04T18:42:21.685Z,8.52
2022-10-04T18:47:21.423Z,7.75
2022-10-04T18:52:24.947Z,7.70
2022-10-04T18:57:24.429Z,7.95
2022-10-04T19:02:12.623Z,8.38
2022-10-04T19:07:05.339Z,7.90
2022-10-04T19:11:57.536Z,7.72
2022-10-04T19:16:49.019Z,8.43
2022-10-04T19:21:46.627Z,7.93
2022-10-04T19:26:38.024Z,8.23
2022-10-04T19:31:33.517Z,8.97
2022-10-04T19:36:34.054Z,8.57
2022-10-04T19:41:29.603Z,8.18
2022-10-04T19:46:26.264Z,7.22
2022-10-04T19:51:23.240Z,7.55
2022-10-04T19:56:12.321Z,7.25
2022-10-04T20:00:57.898Z,7.80
2022-10-04T20:05:47.854Z,7.50
2022-10-04T20:10:38.129Z,7.53
2022-10-04T20:15:46.749Z,7.38
2022-10-04T20:21:04.397Z,7.95
2022-10-04T20:26:10.199Z,9.93
2022-10-04T20:30:57.498Z,9.57
2022-10-04T20:36:04.233Z,8.98
2022-10-04T20:40:49.545Z,7.97
2022-10-04T20:45:46.906Z,8.82
2022-10-04T20:50:36.520Z,9.07
2022-10-04T20:55:28.886Z,8.70
2022-10-04T21:00:22.366Z,8.65
2022-10-04T21:05:20.564Z,8.80
2022-10-04T21:10:18.137Z,8.35
2022-10-04T21:15:09.401Z,8.68
2022-10-04T21:19:54.720Z,8.02
2022-10-04T21:24:43.539Z,8.38
2022-10-04T21:29:28.852Z,8.43
2022-10-04T21:34:24.283Z,7.32
2022-10-04T21:39:19.383Z,7.95
2022-10-04T21:44:07.012Z,7.93
2022-10-04T21:48:52.484Z,8.52
2022-10-04T21:53:37.497Z,8.52
2022-10-04T21:58:22.755Z,7.63
2022-10-04T22:03:10.493Z,8.07
2022-10-04T22:07:55.824Z,9.30
2022-10-04T22:12:40.872Z,9.32
2022-10-04T22:17:26.255Z,9.13
2022-10-04T22:22:18.844Z,9.93
2022-10-04T22:27:04.523Z,8.88
2022-10-04T22:31:52.961Z,8.77
2022-10-04T22:36:40.462Z,9.20
2022-10-04T22:41:32.004Z,8.52
2022-10-04T22:46:19.705Z,9.48
2022-10-04T22:51:05.121Z,9.82
2022-10-04T22:55:51.081Z,10.32
2022-10-04T23:00:38.882Z,11.25
2022-10-04T23:05:24.727Z,11.23
2022-10-04T23:10:10.656Z,10.63
2022-10-04T23:14:56.047Z,11.98
2022-10-04T23:19:43.791Z,12.18
2022-10-04T23:24:29.288Z,13.10
2022-10-04T23:29:20.124Z,13.50
2022-10-04T23:34:05.492Z,13.55
2022-10-04T23:38:57.215Z,12.93
2022-10-04T23:43:43.147Z,13.07
2022-10-04T23:48:32.132Z,14.75
2022-10-04T23:53:26.912Z,14.10
2022-10-04T23:58:18.397Z,13.30
